SARL/AOL METAR and TAF weather

Enter ICAO airport designator
Station Type Date Time Source
SARL METAR 2021/09/24 06:00 UTC NOAA

SARL 240600Z 23005KT CAVOK 12/11 Q1019


Station Type Date Time Source
SARL Decoded METAR 2021/09/24 06:00 UTC NOAA

Paso De Los Libres Aerodrome, Argentina (SARL) 29-41S 057-09W 70M
Sep 24, 2021 - 02:00 AM EDT / 2021.09.24 0600 UTC
Wind: from the SW (230 degrees) at 6 MPH (5 KT):0
Visibility: greater than 7 mile(s):0
Temperature: 53 F (12 C)
Dew Point: 51 F (11 C)
Relative Humidity: 93%
Pressure (altimeter): 30.09 in. Hg (1019 hPa)
ob: SARL 240600Z 23005KT CAVOK 12/11 Q1019
cycle: 6

Station Type Date Time Source
SARL TAF UTC NOAA

Error!

Example: see airport list